createdAt,value
2023-02-16T00:01:20.992Z,-1.12
2023-02-16T00:03:47.843Z,-1.19
2023-02-16T00:06:16.094Z,-1.37
2023-02-16T00:08:47.830Z,-1.21
2023-02-16T00:11:54.261Z,-1.30
2023-02-16T00:14:23.393Z,-1.40
2023-02-16T00:16:50.561Z,-1.36
2023-02-16T00:19:17.160Z,-1.40
2023-02-16T00:21:43.699Z,-1.39
2023-02-16T00:24:10.144Z,-1.37
2023-02-16T00:26:36.653Z,-1.59
2023-02-16T00:29:03.156Z,-1.43
2023-02-16T00:31:34.019Z,-1.44
2023-02-16T00:34:24.963Z,-1.47
2023-02-16T00:36:53.441Z,-1.65
2023-02-16T00:39:24.856Z,-1.57
2023-02-16T00:41:54.825Z,-1.67
2023-02-16T00:44:40.206Z,-1.59
2023-02-16T00:47:39.054Z,-1.58
2023-02-16T00:50:28.979Z,-1.69
2023-02-16T00:52:58.635Z,-1.68
2023-02-16T00:55:31.582Z,-1.76
2023-02-16T00:58:24.322Z,-1.79
2023-02-16T01:00:56.319Z,-1.82
2023-02-16T01:03:26.017Z,-1.82
2023-02-16T01:06:12.541Z,-1.79
2023-02-16T01:08:57.733Z,-1.85
2023-02-16T01:11:25.544Z,-1.85
2023-02-16T01:13:53.649Z,-1.89
2023-02-16T01:16:36.402Z,-1.87
2023-02-16T01:19:03.426Z,-1.87
2023-02-16T01:21:29.863Z,-1.99
2023-02-16T01:23:56.328Z,-1.92
2023-02-16T01:26:22.929Z,-1.93
2023-02-16T01:28:49.447Z,-1.96
2023-02-16T01:31:16.845Z,-1.74
2023-02-16T01:33:43.437Z,-1.95
2023-02-16T01:36:34.635Z,-1.84
2023-02-16T01:39:02.304Z,-1.82
2023-02-16T01:42:06.609Z,-1.83
2023-02-16T01:44:41.164Z,-1.84
2023-02-16T01:47:36.306Z,-1.92
2023-02-16T01:50:16.383Z,-2.07
2023-02-16T01:52:44.738Z,-2.27
2023-02-16T01:55:43.305Z,-2.20
2023-02-16T01:58:12.734Z,-2.21
2023-02-16T02:00:49.647Z,-2.21
2023-02-16T02:03:41.381Z,-2.22
2023-02-16T02:06:18.825Z,-2.37
2023-02-16T02:08:54.984Z,-2.00
2023-02-16T02:11:30.438Z,-2.01
2023-02-16T02:14:06.261Z,-1.89
2023-02-16T02:16:34.192Z,-2.15
2023-02-16T02:19:01.085Z,-2.23
2023-02-16T02:22:17.662Z,-2.30
2023-02-16T02:25:18.984Z,-2.38
2023-02-16T02:28:21.638Z,-2.32
2023-02-16T02:31:30.429Z,-2.21
2023-02-16T02:34:17.775Z,-2.35
2023-02-16T02:37:17.291Z,-2.44
2023-02-16T02:40:02.975Z,-2.35
2023-02-16T02:43:13.972Z,-2.09
2023-02-16T02:45:49.584Z,-2.08
2023-02-16T02:48:16.387Z,-2.25
2023-02-16T02:51:07.260Z,-2.40
2023-02-16T02:54:12.310Z,-2.44
2023-02-16T02:57:18.406Z,-2.53
2023-02-16T03:00:13.250Z,-2.67
2023-02-16T03:02:41.879Z,-2.69
2023-02-16T03:05:12.076Z,-2.68
2023-02-16T03:07:48.853Z,-2.69
2023-02-16T03:10:37.960Z,-3.07
2023-02-16T03:13:07.788Z,-2.68
2023-02-16T03:15:36.173Z,-2.81
2023-02-16T03:18:23.816Z,-2.75
2023-02-16T03:21:09.215Z,-2.75
2023-02-16T03:23:55.790Z,-2.79
2023-02-16T03:26:41.971Z,-2.79
2023-02-16T03:29:24.649Z,-2.77
2023-02-16T03:31:53.932Z,-2.94
2023-02-16T03:34:21.676Z,-2.92
2023-02-16T03:36:59.125Z,-2.92
2023-02-16T03:39:27.624Z,-2.91
2023-02-16T03:41:56.159Z,-2.86
2023-02-16T03:44:22.808Z,-2.91
2023-02-16T03:46:49.693Z,-2.93
2023-02-16T03:49:17.791Z,-2.80
2023-02-16T03:51:44.418Z,-3.02
2023-02-16T03:54:11.751Z,-2.94
2023-02-16T03:56:38.300Z,-3.00
2023-02-16T03:59:04.851Z,-2.98
2023-02-16T04:01:31.411Z,-3.08
2023-02-16T04:03:57.966Z,-3.02
2023-02-16T04:06:24.648Z,-3.22
2023-02-16T04:08:51.186Z,-3.13
2023-02-16T04:11:36.208Z,-3.00
2023-02-16T04:14:03.022Z,-3.09
2023-02-16T04:16:29.625Z,-3.24
2023-02-16T04:18:56.108Z,-3.24
2023-02-16T04:21:22.546Z,-2.93
2023-02-16T04:23:49.010Z,-3.09
2023-02-16T04:26:15.520Z,-3.20
2023-02-16T04:28:42.013Z,-3.24
2023-02-16T04:31:09.234Z,-3.11
2023-02-16T04:33:35.770Z,-3.33
2023-02-16T04:36:02.223Z,-3.15
2023-02-16T04:38:28.778Z,-3.14
2023-02-16T04:40:55.223Z,-3.23
2023-02-16T04:43:21.697Z,-3.23
2023-02-16T04:45:48.192Z,-3.31
2023-02-16T04:48:14.715Z,-3.30
2023-02-16T04:50:41.255Z,-3.27
2023-02-16T04:53:07.984Z,-3.35
2023-02-16T04:55:34.617Z,-3.49
2023-02-16T04:58:01.055Z,-3.43
2023-02-16T05:00:27.603Z,-3.69
2023-02-16T05:02:54.064Z,-3.43
2023-02-16T05:05:20.516Z,-3.51
2023-02-16T05:07:47.011Z,-3.44
2023-02-16T05:10:13.484Z,-3.44
2023-02-16T05:12:58.715Z,-3.56
2023-02-16T05:15:25.277Z,-3.39
2023-02-16T05:17:51.807Z,-3.21
2023-02-16T05:20:18.355Z,-3.28
2023-02-16T05:22:46.233Z,-3.16
2023-02-16T05:25:12.732Z,-3.28
2023-02-16T05:27:39.181Z,-3.44
2023-02-16T05:30:07.064Z,-3.47
2023-02-16T05:32:33.537Z,-3.49
2023-02-16T05:34:59.986Z,-3.65
2023-02-16T05:37:26.429Z,-3.56
2023-02-16T05:39:52.983Z,-3.46
2023-02-16T05:42:19.510Z,-3.70
2023-02-16T05:44:45.981Z,-3.63
2023-02-16T05:47:12.635Z,-3.75
2023-02-16T05:49:39.196Z,-3.57
2023-02-16T05:52:05.775Z,-3.58
2023-02-16T05:54:32.375Z,-3.59
2023-02-16T05:56:58.807Z,-3.58
2023-02-16T05:59:25.392Z,-3.30
2023-02-16T06:01:52.583Z,-3.50
2023-02-16T06:04:20.389Z,-3.32
2023-02-16T06:06:47.562Z,-3.37
2023-02-16T06:09:14.306Z,-3.53
2023-02-16T06:11:40.877Z,-3.33
2023-02-16T06:14:09.668Z,-3.35
2023-02-16T06:16:37.978Z,-3.45
2023-02-16T06:19:05.320Z,-3.29
2023-02-16T06:21:32.324Z,-3.29
2023-02-16T06:23:59.067Z,-3.17
2023-02-16T06:26:26.050Z,-3.21
2023-02-16T06:28:52.645Z,-3.39
2023-02-16T06:31:19.173Z,-3.34
2023-02-16T06:33:45.838Z,-3.36
2023-02-16T06:36:12.418Z,-3.35
2023-02-16T06:38:38.864Z,-3.24
2023-02-16T06:41:06.577Z,-3.19
2023-02-16T06:43:33.310Z,-3.17
2023-02-16T06:45:59.833Z,-3.25
2023-02-16T06:48:26.450Z,-3.26
2023-02-16T06:50:53.170Z,-3.10
2023-02-16T06:53:20.464Z,-3.05
2023-02-16T06:55:49.471Z,-3.09
2023-02-16T06:58:15.933Z,-3.02
2023-02-16T07:00:42.430Z,-3.13
2023-02-16T07:03:08.903Z,-2.98
2023-02-16T07:05:35.390Z,-3.01
2023-02-16T07:08:01.851Z,-2.91
2023-02-16T07:10:37.434Z,-2.93
2023-02-16T07:13:14.370Z,-2.88
2023-02-16T07:15:40.879Z,-2.85
2023-02-16T07:18:07.350Z,-2.81
2023-02-16T07:20:33.976Z,-2.66
2023-02-16T07:23:00.468Z,-2.96
2023-02-16T07:25:26.918Z,-2.67
2023-02-16T07:27:57.764Z,-2.49
2023-02-16T07:30:24.264Z,-2.48
2023-02-16T07:32:50.827Z,-2.33
2023-02-16T07:35:17.504Z,-2.21
2023-02-16T07:37:43.936Z,-2.21
2023-02-16T07:40:10.958Z,-2.21
2023-02-16T07:42:37.473Z,-2.12
2023-02-16T07:45:04.228Z,-2.07
2023-02-16T07:47:30.652Z,-1.93
2023-02-16T07:49:57.099Z,-1.85
2023-02-16T07:52:25.776Z,-1.94
2023-02-16T07:54:52.211Z,-1.77
2023-02-16T07:57:18.661Z,-1.57
2023-02-16T07:59:46.172Z,-1.56
2023-02-16T08:02:17.811Z,-1.37
2023-02-16T08:04:44.316Z,-1.24
2023-02-16T08:07:15.523Z,-1.07
2023-02-16T08:09:42.436Z,-1.15
2023-02-16T08:12:13.152Z,-0.92
2023-02-16T08:14:39.954Z,-0.82
2023-02-16T08:17:07.612Z,-0.76
2023-02-16T08:19:34.492Z,-0.62
2023-02-16T08:22:02.486Z,-0.59
2023-02-16T08:24:29.320Z,-0.57
2023-02-16T08:26:56.361Z,-0.24
2023-02-16T08:29:23.877Z,-0.26
2023-02-16T08:31:51.637Z,-0.01
2023-02-16T08:34:20.247Z,-0.11
2023-02-16T08:36:51.301Z,0.22
2023-02-16T08:39:20.293Z,0.07
2023-02-16T08:41:49.288Z,0.43
2023-02-16T08:44:18.447Z,0.54
2023-02-16T08:46:47.456Z,0.46
2023-02-16T08:49:17.398Z,0.73
2023-02-16T08:51:48.197Z,0.87
2023-02-16T08:54:17.790Z,0.94
2023-02-16T08:56:47.029Z,1.02
2023-02-16T08:59:18.770Z,1.02
2023-02-16T09:01:45.551Z,1.07
2023-02-16T09:04:12.904Z,1.09
2023-02-16T09:06:41.294Z,1.39
2023-02-16T09:09:08.820Z,1.47
2023-02-16T09:11:36.838Z,1.57
2023-02-16T09:14:04.178Z,1.61
2023-02-16T09:16:35.385Z,1.50
2023-02-16T09:19:02.413Z,1.77
2023-02-16T09:21:33.362Z,1.90
2023-02-16T09:24:03.324Z,1.94
2023-02-16T09:26:36.873Z,2.02
2023-02-16T09:29:03.708Z,2.09
2023-02-16T09:31:32.789Z,2.07
2023-02-16T09:34:05.188Z,2.56
2023-02-16T09:36:32.057Z,2.86
2023-02-16T09:38:59.552Z,3.03
2023-02-16T09:41:57.096Z,3.29
2023-02-16T09:44:39.281Z,3.47
2023-02-16T09:47:22.105Z,3.47
2023-02-16T09:49:49.542Z,3.46
2023-02-16T09:52:36.575Z,3.81
2023-02-16T09:55:16.978Z,3.97
2023-02-16T09:58:03.074Z,4.10
2023-02-16T10:00:43.522Z,4.20
2023-02-16T10:03:19.246Z,4.48
2023-02-16T10:05:56.574Z,4.54
2023-02-16T10:08:31.284Z,4.56
2023-02-16T10:11:29.878Z,4.85
2023-02-16T10:14:04.910Z,4.98
2023-02-16T10:16:41.251Z,5.03
2023-02-16T10:19:20.070Z,5.26
2023-02-16T10:21:51.261Z,5.33
2023-02-16T10:24:18.367Z,5.34
2023-02-16T10:26:54.173Z,5.67
2023-02-16T10:29:22.363Z,5.72
2023-02-16T10:32:08.303Z,6.03
2023-02-16T10:34:34.793Z,6.56
2023-02-16T10:37:11.578Z,6.76
2023-02-16T10:40:00.190Z,6.83
2023-02-16T10:42:35.924Z,6.93
2023-02-16T10:45:39.684Z,7.01
2023-02-16T10:48:06.179Z,7.04
2023-02-16T10:50:43.449Z,7.22
2023-02-16T10:53:18.514Z,7.54
2023-02-16T10:55:45.737Z,7.37
2023-02-16T10:58:22.699Z,7.05
2023-02-16T11:01:08.473Z,7.15
2023-02-16T11:03:44.649Z,7.33
2023-02-16T11:06:17.415Z,7.18
2023-02-16T11:09:01.097Z,7.05
2023-02-16T11:11:30.574Z,7.24
2023-02-16T11:14:01.320Z,7.61
2023-02-16T11:16:29.612Z,7.69
2023-02-16T11:19:01.441Z,8.31
2023-02-16T11:21:44.426Z,8.36
2023-02-16T11:24:23.799Z,8.39
2023-02-16T11:27:04.441Z,8.62
2023-02-16T11:29:31.553Z,8.83
2023-02-16T11:31:59.039Z,9.11
2023-02-16T11:34:35.277Z,9.12
2023-02-16T11:37:06.129Z,9.16
2023-02-16T11:39:38.111Z,8.93
2023-02-16T11:42:18.868Z,9.04
2023-02-16T11:44:52.737Z,9.49
2023-02-16T11:47:22.244Z,9.78
2023-02-16T11:49:51.768Z,9.75
2023-02-16T11:52:27.590Z,9.86
2023-02-16T11:54:57.483Z,9.94
2023-02-16T11:57:31.732Z,9.82
2023-02-16T11:59:59.390Z,9.76
2023-02-16T12:02:28.836Z,9.74
2023-02-16T12:05:14.673Z,9.91
2023-02-16T12:07:54.312Z,9.90
2023-02-16T12:10:35.081Z,10.28
2023-02-16T12:13:17.903Z,10.25
2023-02-16T12:15:59.648Z,9.92
2023-02-16T12:18:36.969Z,9.76
2023-02-16T12:21:19.088Z,9.76
2023-02-16T12:24:18.106Z,9.59
2023-02-16T12:26:51.984Z,9.58
2023-02-16T12:29:41.382Z,9.76
2023-02-16T12:32:22.892Z,9.60
2023-02-16T12:34:52.293Z,9.13
2023-02-16T12:37:30.781Z,9.30
2023-02-16T12:40:20.609Z,9.44
2023-02-16T12:43:13.367Z,9.58
2023-02-16T12:45:43.962Z,9.79
2023-02-16T12:48:37.362Z,9.65
2023-02-16T12:51:10.193Z,9.77
2023-02-16T12:53:57.814Z,9.55
2023-02-16T12:56:33.398Z,9.43
2023-02-16T12:59:39.253Z,9.42
2023-02-16T13:02:15.845Z,9.52
2023-02-16T13:05:08.637Z,9.58
2023-02-16T13:07:52.587Z,9.76
2023-02-16T13:10:27.043Z,9.55
2023-02-16T13:13:04.275Z,9.44
2023-02-16T13:15:30.705Z,9.83
2023-02-16T13:18:02.213Z,9.97
2023-02-16T13:20:29.056Z,9.84
2023-02-16T13:23:17.000Z,9.78
2023-02-16T13:26:21.189Z,10.09
2023-02-16T13:29:17.366Z,10.38
2023-02-16T13:32:14.785Z,10.18
2023-02-16T13:35:20.009Z,10.16
2023-02-16T13:38:06.568Z,9.84
2023-02-16T13:40:43.494Z,9.73
2023-02-16T13:43:28.752Z,9.69
2023-02-16T13:45:56.613Z,10.14
2023-02-16T13:48:37.517Z,9.95
2023-02-16T13:51:25.648Z,10.10
2023-02-16T13:54:01.764Z,9.90
2023-02-16T13:56:37.874Z,9.86
2023-02-16T13:59:17.221Z,9.77
2023-02-16T14:01:45.026Z,9.60
2023-02-16T14:04:23.367Z,9.89
2023-02-16T14:07:13.291Z,9.83
2023-02-16T14:09:39.840Z,9.81
2023-02-16T14:12:09.116Z,9.97
2023-02-16T14:14:41.540Z,10.37
2023-02-16T14:17:21.536Z,10.16
2023-02-16T14:20:04.860Z,9.92
2023-02-16T14:22:31.293Z,9.87
2023-02-16T14:25:01.116Z,9.78
2023-02-16T14:27:51.424Z,10.11
2023-02-16T14:30:36.260Z,10.11
2023-02-16T14:33:17.946Z,10.03
2023-02-16T14:35:59.581Z,10.06
2023-02-16T14:38:30.465Z,10.09
2023-02-16T14:40:58.127Z,9.97
2023-02-16T14:43:41.577Z,10.00
2023-02-16T14:46:08.274Z,10.08
2023-02-16T14:49:00.417Z,9.95
2023-02-16T14:51:51.995Z,10.16
2023-02-16T14:54:24.471Z,10.02
2023-02-16T14:57:02.557Z,9.93
2023-02-16T14:59:44.667Z,10.00
2023-02-16T15:02:32.185Z,10.01
2023-02-16T15:04:58.647Z,9.81
2023-02-16T15:07:28.667Z,9.68
2023-02-16T15:09:58.047Z,10.10
2023-02-16T15:12:38.935Z,9.97
2023-02-16T15:15:10.088Z,9.86
2023-02-16T15:17:45.063Z,9.97
2023-02-16T15:20:31.419Z,10.04
2023-02-16T15:23:04.627Z,9.81
2023-02-16T15:25:39.028Z,9.68
2023-02-16T15:28:11.396Z,9.69
2023-02-16T15:30:42.300Z,9.59
2023-02-16T15:33:24.042Z,9.57
2023-02-16T15:36:00.433Z,9.64
2023-02-16T15:38:32.752Z,9.55
2023-02-16T15:41:02.771Z,9.69
2023-02-16T15:43:39.845Z,9.63
2023-02-16T15:46:14.132Z,9.67
2023-02-16T15:48:40.996Z,9.60
2023-02-16T15:51:25.102Z,9.50
2023-02-16T15:54:03.538Z,9.57
2023-02-16T15:56:36.012Z,9.47
2023-02-16T15:59:21.272Z,9.41
2023-02-16T16:01:48.319Z,9.43
2023-02-16T16:04:24.337Z,9.37
2023-02-16T16:06:52.116Z,9.35
2023-02-16T16:09:33.069Z,9.27
2023-02-16T16:12:12.214Z,9.14
2023-02-16T16:14:50.923Z,9.08
2023-02-16T16:17:23.552Z,8.99
2023-02-16T16:19:51.487Z,8.72
2023-02-16T16:22:29.140Z,8.66
2023-02-16T16:24:55.867Z,8.55
2023-02-16T16:27:36.643Z,8.43
2023-02-16T16:30:20.961Z,8.32
2023-02-16T16:32:48.004Z,8.07
2023-02-16T16:35:22.909Z,8.09
2023-02-16T16:37:52.408Z,7.85
2023-02-16T16:40:18.843Z,7.85
2023-02-16T16:43:03.703Z,7.74
2023-02-16T16:45:42.396Z,7.58
2023-02-16T16:48:14.033Z,7.50
2023-02-16T16:50:41.048Z,7.29
2023-02-16T16:53:29.943Z,7.29
2023-02-16T16:55:57.352Z,7.09
2023-02-16T16:58:23.794Z,6.93
2023-02-16T17:00:50.678Z,6.90
2023-02-16T17:03:18.313Z,6.72
2023-02-16T17:05:45.655Z,6.76
2023-02-16T17:08:12.479Z,6.54
2023-02-16T17:10:41.300Z,6.52
2023-02-16T17:13:13.337Z,6.43
2023-02-16T17:15:48.861Z,6.32
2023-02-16T17:18:19.254Z,6.28
2023-02-16T17:20:48.141Z,6.09
2023-02-16T17:23:19.126Z,6.08
2023-02-16T17:25:46.774Z,6.01
2023-02-16T17:28:15.583Z,5.91
2023-02-16T17:30:43.066Z,5.96
2023-02-16T17:33:10.861Z,5.77
2023-02-16T17:35:40.263Z,5.84
2023-02-16T17:38:11.952Z,5.68
2023-02-16T17:40:39.744Z,5.69
2023-02-16T17:43:14.284Z,5.73
2023-02-16T17:45:41.982Z,5.70
2023-02-16T17:48:25.194Z,5.69
2023-02-16T17:50:52.140Z,5.57
2023-02-16T17:53:20.990Z,5.72
2023-02-16T17:55:49.442Z,5.53
2023-02-16T17:58:16.267Z,5.78
2023-02-16T18:00:44.104Z,5.83
2023-02-16T18:03:10.941Z,5.87
2023-02-16T18:05:38.431Z,5.76
2023-02-16T18:08:05.264Z,5.81
2023-02-16T18:10:42.483Z,5.78
2023-02-16T18:13:11.421Z,5.98
2023-02-16T18:15:39.785Z,6.00
2023-02-16T18:18:06.491Z,5.99
2023-02-16T18:20:33.326Z,5.88
2023-02-16T18:22:59.978Z,5.88
2023-02-16T18:25:26.532Z,6.05
2023-02-16T18:27:53.170Z,6.04
2023-02-16T18:30:20.117Z,6.04
2023-02-16T18:32:46.553Z,5.93
2023-02-16T18:35:13.744Z,6.01
2023-02-16T18:37:40.705Z,5.98
2023-02-16T18:40:09.082Z,6.07
2023-02-16T18:42:36.131Z,6.04
2023-02-16T18:45:03.509Z,6.00
2023-02-16T18:47:30.624Z,5.99
2023-02-16T18:49:57.032Z,6.07
2023-02-16T18:52:23.871Z,6.09
2023-02-16T18:54:50.308Z,6.07
2023-02-16T18:57:17.236Z,6.04
2023-02-16T18:59:44.096Z,6.06
2023-02-16T19:02:11.920Z,6.07
2023-02-16T19:04:38.766Z,6.03
2023-02-16T19:07:05.354Z,6.09
2023-02-16T19:09:31.773Z,6.04
2023-02-16T19:11:58.188Z,6.02
2023-02-16T19:14:24.928Z,5.98
2023-02-16T19:16:53.678Z,5.93
2023-02-16T19:19:20.106Z,5.81
2023-02-16T19:21:46.588Z,5.81
2023-02-16T19:24:13.256Z,5.81
2023-02-16T19:26:40.847Z,5.89
2023-02-16T19:29:07.322Z,5.76
2023-02-16T19:31:35.305Z,5.78
2023-02-16T19:34:02.275Z,5.66
2023-02-16T19:36:30.523Z,5.74
2023-02-16T19:38:57.331Z,5.74
2023-02-16T19:41:26.891Z,5.77
2023-02-16T19:43:53.412Z,5.62
2023-02-16T19:46:20.289Z,5.70
2023-02-16T19:48:47.156Z,5.73
2023-02-16T19:51:14.285Z,5.80
2023-02-16T19:53:41.808Z,5.81
2023-02-16T19:56:11.518Z,5.83
2023-02-16T19:58:38.453Z,5.80
2023-02-16T20:01:18.037Z,5.81
2023-02-16T20:03:46.034Z,5.68
2023-02-16T20:06:19.579Z,5.87
2023-02-16T20:08:47.354Z,5.89
2023-02-16T20:11:15.505Z,5.94
2023-02-16T20:13:42.550Z,5.96
2023-02-16T20:16:10.130Z,5.96
2023-02-16T20:18:37.031Z,5.96
2023-02-16T20:21:07.017Z,5.93
2023-02-16T20:23:37.362Z,6.01
2023-02-16T20:26:20.445Z,6.03
2023-02-16T20:28:48.572Z,6.08
2023-02-16T20:31:16.990Z,6.08
2023-02-16T20:33:43.479Z,6.04
2023-02-16T20:36:10.750Z,6.02
2023-02-16T20:38:37.875Z,6.13
2023-02-16T20:41:05.067Z,6.05
2023-02-16T20:43:32.135Z,6.10
2023-02-16T20:45:58.663Z,6.00
2023-02-16T20:48:25.993Z,6.11
2023-02-16T20:50:57.218Z,6.06
2023-02-16T20:53:23.838Z,6.06
2023-02-16T20:55:50.868Z,6.10
2023-02-16T20:58:18.377Z,6.24
2023-02-16T21:00:45.078Z,6.27
2023-02-16T21:03:11.524Z,6.17
2023-02-16T21:05:38.044Z,6.25
2023-02-16T21:08:04.612Z,6.22
2023-02-16T21:10:31.172Z,6.20
2023-02-16T21:12:57.827Z,6.20
2023-02-16T21:15:24.388Z,6.36
2023-02-16T21:17:50.819Z,6.23
2023-02-16T21:20:17.352Z,6.23
2023-02-16T21:22:44.428Z,6.24
2023-02-16T21:25:11.144Z,6.25
2023-02-16T21:27:37.607Z,6.29
2023-02-16T21:30:05.326Z,6.29
2023-02-16T21:32:32.165Z,6.24
2023-02-16T21:34:58.640Z,6.26
2023-02-16T21:37:25.064Z,6.23
2023-02-16T21:40:30.100Z,6.20
2023-02-16T21:42:57.516Z,6.35
2023-02-16T21:45:24.235Z,6.33
2023-02-16T21:48:09.444Z,6.32
2023-02-16T21:50:39.318Z,6.37
2023-02-16T21:53:07.148Z,6.38
2023-02-16T21:55:55.328Z,6.34
2023-02-16T21:58:22.115Z,6.32
2023-02-16T22:00:51.610Z,6.31
2023-02-16T22:03:18.515Z,6.36
2023-02-16T22:05:45.084Z,6.33
2023-02-16T22:08:14.343Z,6.38
2023-02-16T22:10:41.029Z,6.24
2023-02-16T22:13:07.446Z,6.30
2023-02-16T22:15:36.688Z,6.29
2023-02-16T22:18:07.200Z,6.30
2023-02-16T22:20:34.159Z,6.26
2023-02-16T22:23:00.586Z,6.20
2023-02-16T22:25:27.086Z,6.30
2023-02-16T22:27:53.498Z,6.32
2023-02-16T22:30:20.081Z,6.40
2023-02-16T22:32:46.545Z,6.31
2023-02-16T22:35:13.049Z,6.33
2023-02-16T22:37:39.517Z,6.45
2023-02-16T22:40:06.484Z,6.43
2023-02-16T22:42:32.973Z,6.45
2023-02-16T22:44:59.380Z,6.32
2023-02-16T22:47:25.953Z,6.47
2023-02-16T22:49:52.356Z,6.48
2023-02-16T22:52:18.912Z,6.54
2023-02-16T22:54:45.392Z,6.38
2023-02-16T22:57:11.841Z,6.44
2023-02-16T22:59:38.325Z,6.46
2023-02-16T23:02:04.822Z,6.68
2023-02-16T23:04:31.266Z,6.56
2023-02-16T23:06:57.703Z,6.72
2023-02-16T23:09:24.205Z,6.81
2023-02-16T23:11:50.829Z,6.86
2023-02-16T23:14:18.992Z,7.12
2023-02-16T23:16:51.576Z,7.09
2023-02-16T23:19:21.314Z,6.99
2023-02-16T23:21:48.785Z,7.11
2023-02-16T23:24:18.607Z,7.04
2023-02-16T23:26:46.105Z,7.43
2023-02-16T23:29:12.595Z,7.12
2023-02-16T23:31:40.828Z,7.28
2023-02-16T23:34:08.282Z,7.16
2023-02-16T23:36:36.737Z,6.88
2023-02-16T23:39:07.693Z,7.15
2023-02-16T23:41:34.629Z,7.29
2023-02-16T23:44:01.438Z,7.08
2023-02-16T23:46:28.194Z,7.01
2023-02-16T23:48:54.783Z,6.98
2023-02-16T23:51:21.244Z,7.03
2023-02-16T23:53:48.312Z,7.15
2023-02-16T23:56:18.619Z,7.22
2023-02-16T23:58:45.576Z,7.21
